Time;durP1;ratioP1;P1;durP2;ratioP2;P2;SDS_P1;SDS_P2;PMS_P1;PMS_P2;Temp;Humidity;BMP_temperature;BMP_pressure;BME280_temperature;BME280_humidity;BME280_pressure;Samples;Min_cycle;Max_cycle;Signal;HPM_P1;HPM_P2
2021/06/22 00:01:40;;;;;;;3.97;2.15;;;;;;;;;;4993942;28;20050;-84
2021/06/22 00:04:07;;;;;;;3.25;2.05;;;;;;;;;;4976908;28;20053;-84
2021/06/22 00:06:34;;;;;;;3.10;2.03;;;;;;;;;;4993167;28;20488;-85
2021/06/22 00:09:00;;;;;;;4.85;2.50;;;;;;;;;;4977422;28;20073;-85
2021/06/22 00:11:27;;;;;;;3.05;2.40;;;;;;;;;;4976717;28;20510;-84
2021/06/22 00:13:55;;;;;;;2.90;1.88;;;;;;;;;;4992721;28;20047;-84
2021/06/22 00:16:21;;;;;;;3.90;2.70;;;;;;;;;;4993399;28;20050;-85
2021/06/22 00:18:48;;;;;;;5.18;2.30;;;;;;;;;;4994621;28;20057;-85
2021/06/22 00:21:15;;;;;;;5.32;2.72;;;;;;;;;;4976931;28;20050;-87
2021/06/22 00:23:41;;;;;;;5.97;2.78;;;;;;;;;;4993766;28;20073;-85
2021/06/22 00:26:08;;;;;;;3.42;2.42;;;;;;;;;;4994562;28;20047;-85
2021/06/22 00:28:34;;;;;;;4.03;2.85;;;;;;;;;;4993665;28;20046;-85
2021/06/22 00:31:02;;;;;;;4.22;2.95;;;;;;;;;;4977420;28;20060;-85
2021/06/22 00:33:29;;;;;;;5.05;3.22;;;;;;;;;;4994232;28;20050;-86
2021/06/22 00:35:55;;;;;;;3.60;2.40;;;;;;;;;;4994657;28;20054;-85
2021/06/22 00:38:22;;;;;;;5.00;3.15;;;;;;;;;;4994235;28;20047;-85
2021/06/22 00:40:48;;;;;;;4.43;2.97;;;;;;;;;;4994376;28;20050;-85
2021/06/22 00:43:17;;;;;;;8.60;2.85;;;;;;;;;;4960990;28;20521;-85
2021/06/22 00:45:44;;;;;;;7.90;2.58;;;;;;;;;;4976873;28;20058;-85
2021/06/22 00:48:12;;;;;;;4.00;2.92;;;;;;;;;;4994254;28;20046;-85
2021/06/22 00:50:38;;;;;;;4.05;2.55;;;;;;;;;;4993950;28;20054;-85
2021/06/22 00:53:08;;;;;;;4.88;3.00;;;;;;;;;;4976735;28;20133;-86
2021/06/22 00:55:34;;;;;;;3.85;2.60;;;;;;;;;;4994329;28;20061;-85
2021/06/22 00:58:02;;;;;;;4.78;3.10;;;;;;;;;;4994536;28;20135;-85
2021/06/22 01:00:29;;;;;;;3.75;2.60;;;;;;;;;;4994980;28;20463;-84
2021/06/22 01:02:56;;;;;;;4.10;2.65;;;;;;;;;;4994277;28;20070;-84
2021/06/22 01:05:24;;;;;;;4.35;2.65;;;;;;;;;;4993928;28;20483;-85
2021/06/22 01:07:52;;;;;;;4.68;2.50;;;;;;;;;;4994303;28;20047;-85
2021/06/22 01:10:19;;;;;;;4.85;3.30;;;;;;;;;;4994155;28;20046;-85
2021/06/22 01:12:46;;;;;;;5.20;3.13;;;;;;;;;;4993090;28;20050;-85
2021/06/22 01:15:17;;;;;;;4.10;2.80;;;;;;;;;;4993904;28;20054;-84
2021/06/22 01:17:44;;;;;;;3.70;2.63;;;;;;;;;;4994315;28;20455;-84
2021/06/22 01:20:12;;;;;;;5.22;3.00;;;;;;;;;;4994449;28;20400;-85
2021/06/22 01:22:43;;;;;;;3.67;3.00;;;;;;;;;;4997437;28;20466;-85
2021/06/22 01:25:10;;;;;;;4.28;2.95;;;;;;;;;;4997749;28;20046;-85
2021/06/22 01:27:37;;;;;;;3.08;2.28;;;;;;;;;;4997628;28;20059;-85
2021/06/22 01:30:04;;;;;;;4.00;2.67;;;;;;;;;;4996082;28;20410;-85
2021/06/22 01:32:31;;;;;;;4.18;2.35;;;;;;;;;;4997359;28;20057;-82
2021/06/22 01:34:57;;;;;;;4.82;2.70;;;;;;;;;;4997656;28;20066;-85
2021/06/22 01:37:24;;;;;;;6.53;3.00;;;;;;;;;;4997773;28;20061;-85
2021/06/22 01:39:52;;;;;;;4.65;2.90;;;;;;;;;;4997923;28;20077;-85
2021/06/22 01:42:20;;;;;;;7.70;2.60;;;;;;;;;;4978528;28;20046;-85
2021/06/22 01:44:50;;;;;;;7.55;3.38;;;;;;;;;;4978049;28;20784;-85
2021/06/22 01:47:17;;;;;;;2.95;2.28;;;;;;;;;;4977910;28;20054;-86
2021/06/22 01:49:44;;;;;;;5.72;2.83;;;;;;;;;;4961106;28;20061;-84
2021/06/22 01:52:10;;;;;;;4.07;2.88;;;;;;;;;;4978696;28;20043;-86
2021/06/22 01:54:36;;;;;;;7.18;3.35;;;;;;;;;;4978668;28;20054;-85
2021/06/22 01:57:05;;;;;;;4.75;2.78;;;;;;;;;;4978097;28;20058;-84
2021/06/22 01:59:31;;;;;;;3.92;2.53;;;;;;;;;;4978268;28;20051;-85
2021/06/22 02:01:58;;;;;;;4.88;2.92;;;;;;;;;;4961844;28;20055;-85
2021/06/22 02:04:24;;;;;;;7.05;2.90;;;;;;;;;;4978973;28;20047;-87
2021/06/22 02:06:51;;;;;;;4.97;2.38;;;;;;;;;;4978826;28;20411;-85
2021/06/22 02:09:17;;;;;;;6.65;2.58;;;;;;;;;;4979237;28;20050;-85
2021/06/22 02:11:44;;;;;;;5.22;3.20;;;;;;;;;;4986003;28;20042;-86
2021/06/22 02:14:13;;;;;;;3.70;2.85;;;;;;;;;;4998200;28;20047;-84
2021/06/22 02:16:40;;;;;;;5.18;2.65;;;;;;;;;;4998277;28;20049;-86
2021/06/22 02:19:06;;;;;;;5.40;2.92;;;;;;;;;;4998602;28;20042;-85
2021/06/22 02:21:33;;;;;;;2.88;2.22;;;;;;;;;;4996965;28;20656;-86
2021/06/22 02:23:59;;;;;;;4.55;2.80;;;;;;;;;;4998629;28;20057;-85
2021/06/22 02:26:26;;;;;;;4.03;2.45;;;;;;;;;;4998371;28;20042;-87
2021/06/22 02:28:52;;;;;;;3.83;2.13;;;;;;;;;;4981468;28;20050;-85
2021/06/22 02:31:20;;;;;;;5.25;2.35;;;;;;;;;;4999138;28;20057;-86
2021/06/22 02:33:46;;;;;;;4.47;2.25;;;;;;;;;;5000609;28;20043;-86
2021/06/22 02:36:13;;;;;;;4.22;2.60;;;;;;;;;;4982100;28;20059;-85
2021/06/22 02:38:39;;;;;;;5.53;3.63;;;;;;;;;;5000167;28;20069;-85
2021/06/22 02:41:06;;;;;;;3.90;2.88;;;;;;;;;;4998365;28;20053;-84
2021/06/22 02:43:33;;;;;;;2.80;2.22;;;;;;;;;;4995473;28;20515;-85
2021/06/22 02:46:00;;;;;;;4.70;3.10;;;;;;;;;;4994486;28;20058;-85
2021/06/22 02:48:28;;;;;;;3.47;2.50;;;;;;;;;;4996627;28;20049;-84
2021/06/22 02:50:56;;;;;;;3.70;2.65;;;;;;;;;;4979891;28;20061;-86
2021/06/22 02:53:22;;;;;;;4.47;2.67;;;;;;;;;;4996886;28;20053;-85
2021/06/22 02:55:49;;;;;;;4.13;2.92;;;;;;;;;;4995474;28;20054;-86
2021/06/22 02:58:15;;;;;;;4.47;2.25;;;;;;;;;;4996187;28;20046;-86
2021/06/22 03:00:42;;;;;;;3.80;2.63;;;;;;;;;;4998123;28;20046;-86
2021/06/22 03:03:09;;;;;;;3.97;2.70;;;;;;;;;;4997908;28;20054;-85
2021/06/22 03:05:36;;;;;;;7.75;2.78;;;;;;;;;;4997783;28;20053;-85
2021/06/22 03:08:03;;;;;;;5.97;3.00;;;;;;;;;;4996698;28;20510;-85
2021/06/22 03:10:30;;;;;;;5.95;3.20;;;;;;;;;;4998188;28;20046;-87
2021/06/22 03:12:56;;;;;;;4.95;3.10;;;;;;;;;;4998362;28;20057;-86
2021/06/22 03:15:24;;;;;;;3.90;2.78;;;;;;;;;;5002294;28;20047;-85
2021/06/22 03:17:51;;;;;;;5.90;3.10;;;;;;;;;;4984929;28;20494;-84
2021/06/22 03:20:18;;;;;;;5.25;3.10;;;;;;;;;;4960059;28;20053;-84
2021/06/22 03:22:46;;;;;;;3.28;2.53;;;;;;;;;;4974813;28;20047;-84
2021/06/22 03:25:13;;;;;;;6.47;3.45;;;;;;;;;;4976127;28;20396;-84
2021/06/22 03:27:40;;;;;;;7.10;2.63;;;;;;;;;;4975531;28;20046;-84
2021/06/22 03:30:09;;;;;;;6.15;2.67;;;;;;;;;;4975651;28;20404;-84
2021/06/22 03:32:35;;;;;;;6.88;3.40;;;;;;;;;;4975991;28;20047;-85
2021/06/22 03:35:04;;;;;;;3.00;2.20;;;;;;;;;;4976058;28;20126;-84
2021/06/22 03:37:31;;;;;;;7.03;2.75;;;;;;;;;;4977077;28;20046;-84
2021/06/22 03:39:59;;;;;;;3.80;3.00;;;;;;;;;;4976283;28;20059;-84
2021/06/22 03:42:25;;;;;;;4.78;3.00;;;;;;;;;;4957868;28;20102;-84
2021/06/22 03:44:52;;;;;;;3.53;2.65;;;;;;;;;;4985471;28;20046;-84
2021/06/22 03:47:19;;;;;;;5.97;3.05;;;;;;;;;;4995249;28;20046;-85
2021/06/22 03:49:46;;;;;;;4.30;2.45;;;;;;;;;;4993297;28;20451;-84
2021/06/22 03:52:12;;;;;;;4.60;2.28;;;;;;;;;;4994658;28;20054;-85
2021/06/22 03:54:39;;;;;;;5.53;2.42;;;;;;;;;;4994731;28;20047;-84
2021/06/22 03:57:07;;;;;;;5.07;2.42;;;;;;;;;;4988976;28;20555;-84
2021/06/22 03:59:33;;;;;;;3.10;2.20;;;;;;;;;;4988971;28;20057;-83
2021/06/22 04:01:59;;;;;;;7.80;2.88;;;;;;;;;;4991520;28;20053;-83
2021/06/22 04:04:26;;;;;;;3.22;2.25;;;;;;;;;;4983893;28;20049;-84
2021/06/22 04:06:53;;;;;;;5.05;2.90;;;;;;;;;;4976268;28;20503;-84
2021/06/22 04:09:25;;;;;;;3.60;3.20;;;;;;;;;;4958155;28;20046;-84
2021/06/22 04:11:52;;;;;;;6.50;3.08;;;;;;;;;;4979304;28;20129;-83
2021/06/22 04:14:20;;;;;;;4.65;2.90;;;;;;;;;;4986408;28;20068;-84
2021/06/22 04:16:47;;;;;;;3.40;2.45;;;;;;;;;;4974599;28;20046;-83
2021/06/22 04:19:13;;;;;;;8.05;3.25;;;;;;;;;;4974911;28;20054;-83
2021/06/22 04:21:40;;;;;;;5.18;3.65;;;;;;;;;;4957778;28;20050;-83
2021/06/22 04:24:07;;;;;;;3.97;3.28;;;;;;;;;;4974596;28;20488;-83
2021/06/22 04:26:34;;;;;;;6.68;3.70;;;;;;;;;;4974793;28;20043;-85
2021/06/22 04:29:00;;;;;;;8.75;3.83;;;;;;;;;;4975154;28;20047;-82
2021/06/22 04:31:28;;;;;;;5.38;3.75;;;;;;;;;;4976581;28;20054;-83
2021/06/22 04:33:54;;;;;;;5.63;3.00;;;;;;;;;;4976166;28;20057;-83
2021/06/22 04:36:21;;;;;;;6.15;3.63;;;;;;;;;;4976254;28;20507;-83
2021/06/22 04:38:48;;;;;;;4.43;3.20;;;;;;;;;;4976377;28;20640;-84
2021/06/22 04:41:14;;;;;;;7.88;3.40;;;;;;;;;;4976278;28;20051;-83
2021/06/22 04:43:41;;;;;;;7.05;3.42;;;;;;;;;;4980383;28;20047;-83
2021/06/22 04:46:07;;;;;;;4.78;3.63;;;;;;;;;;4995722;28;20047;-83
2021/06/22 04:48:38;;;;;;;6.50;3.30;;;;;;;;;;4990078;28;20053;-84
2021/06/22 04:51:05;;;;;;;7.00;4.07;;;;;;;;;;4987728;28;20098;-81
2021/06/22 04:53:31;;;;;;;4.45;3.95;;;;;;;;;;4966630;28;20050;-84
2021/06/22 04:55:58;;;;;;;4.43;3.75;;;;;;;;;;4998201;28;20064;-88
2021/06/22 04:58:24;;;;;;;6.18;3.40;;;;;;;;;;4998934;28;20046;-85
2021/06/22 05:00:51;;;;;;;5.35;2.80;;;;;;;;;;4997917;28;20518;-83
2021/06/22 05:03:18;;;;;;;5.20;3.67;;;;;;;;;;4998828;28;20046;-85
2021/06/22 05:05:45;;;;;;;6.28;4.20;;;;;;;;;;4980991;28;20042;-86
2021/06/22 05:08:12;;;;;;;9.05;3.67;;;;;;;;;;4999618;28;20053;-83
2021/06/22 05:10:38;;;;;;;8.05;3.55;;;;;;;;;;5000279;28;20046;-83
2021/06/22 05:13:05;;;;;;;5.28;3.20;;;;;;;;;;4984915;28;20531;-84
2021/06/22 05:15:32;;;;;;;7.15;3.47;;;;;;;;;;4981823;28;20050;-84
2021/06/22 05:17:58;;;;;;;5.20;3.35;;;;;;;;;;4982038;28;20058;-84
2021/06/22 05:20:24;;;;;;;6.95;3.20;;;;;;;;;;4999182;28;20480;-85
2021/06/22 05:22:52;;;;;;;5.97;3.42;;;;;;;;;;4998536;28;20495;-85
2021/06/22 05:25:19;;;;;;;8.10;4.70;;;;;;;;;;4998366;28;20053;-85
2021/06/22 05:27:45;;;;;;;6.85;3.63;;;;;;;;;;4998031;28;20043;-84
2021/06/22 05:30:13;;;;;;;7.63;4.20;;;;;;;;;;4998522;28;20050;-85
2021/06/22 05:32:39;;;;;;;5.60;4.50;;;;;;;;;;5001223;28;20046;-86
2021/06/22 05:35:06;;;;;;;10.15;4.43;;;;;;;;;;5002104;28;20042;-85
2021/06/22 05:37:34;;;;;;;16.90;5.00;;;;;;;;;;4978572;28;20058;-87
2021/06/22 05:40:02;;;;;;;9.20;4.20;;;;;;;;;;4985458;28;20065;-86
2021/06/22 05:42:29;;;;;;;9.35;4.30;;;;;;;;;;4984947;28;20051;-86
2021/06/22 05:44:55;;;;;;;6.72;4.22;;;;;;;;;;4984231;28;20055;-86
2021/06/22 05:47:22;;;;;;;9.68;4.25;;;;;;;;;;4992063;28;20046;-86
2021/06/22 05:49:48;;;;;;;7.47;4.00;;;;;;;;;;4993308;28;20050;-86
2021/06/22 05:52:15;;;;;;;7.53;4.22;;;;;;;;;;4966441;28;20047;-85
2021/06/22 05:54:42;;;;;;;11.18;4.00;;;;;;;;;;4962107;28;20057;-85
2021/06/22 05:57:10;;;;;;;6.50;3.78;;;;;;;;;;4977557;28;20073;-85
2021/06/22 05:59:36;;;;;;;6.60;4.05;;;;;;;;;;4979032;28;20415;-85
2021/06/22 06:02:03;;;;;;;7.80;4.35;;;;;;;;;;4980797;28;20055;-84
2021/06/22 06:04:31;;;;;;;5.70;3.63;;;;;;;;;;4963301;28;20468;-85
2021/06/22 06:06:57;;;;;;;5.43;3.28;;;;;;;;;;4979489;28;20051;-85
2021/06/22 06:09:25;;;;;;;5.85;3.20;;;;;;;;;;5000410;28;20053;-85
2021/06/22 06:11:52;;;;;;;6.22;4.00;;;;;;;;;;4979268;28;20054;-85
2021/06/22 06:14:20;;;;;;;6.32;3.20;;;;;;;;;;4996695;28;20406;-85
2021/06/22 06:16:47;;;;;;;4.90;3.55;;;;;;;;;;4997314;28;20046;-85
2021/06/22 06:19:14;;;;;;;6.18;3.50;;;;;;;;;;4999679;28;20047;-84
2021/06/22 06:21:41;;;;;;;5.22;3.45;;;;;;;;;;4998087;28;20050;-85
2021/06/22 06:24:08;;;;;;;6.35;3.42;;;;;;;;;;4998593;28;20061;-85
2021/06/22 06:26:42;;;;;;;6.47;3.22;;;;;;;;;;4982830;28;20058;-85
2021/06/22 06:29:15;;;;;;;6.95;3.75;;;;;;;;;;5001653;28;20112;-86
2021/06/22 06:31:43;;;;;;;7.68;3.75;;;;;;;;;;4984192;28;20057;-85
2021/06/22 06:34:09;;;;;;;5.28;3.20;;;;;;;;;;5001080;28;20055;-84
2021/06/22 06:36:36;;;;;;;4.45;3.30;;;;;;;;;;5000725;28;20054;-86
2021/06/22 06:39:03;;;;;;;5.20;3.40;;;;;;;;;;5003741;28;20483;-84
2021/06/22 06:41:31;;;;;;;5.05;2.75;;;;;;;;;;5002427;28;20046;-84
2021/06/22 06:43:58;;;;;;;5.05;2.78;;;;;;;;;;5004870;28;20126;-84
2021/06/22 06:46:24;;;;;;;6.00;2.60;;;;;;;;;;4985762;28;20081;-84
2021/06/22 06:48:52;;;;;;;5.43;2.40;;;;;;;;;;4999576;28;20392;-84
2021/06/22 06:51:19;;;;;;;3.28;2.28;;;;;;;;;;4981730;28;20057;-84
2021/06/22 06:53:46;;;;;;;5.85;2.33;;;;;;;;;;4963044;28;20066;-84
2021/06/22 06:56:12;;;;;;;4.25;2.30;;;;;;;;;;4980706;28;20059;-82
2021/06/22 06:58:38;;;;;;;3.85;2.10;;;;;;;;;;4980474;28;20049;-83
2021/06/22 07:01:05;;;;;;;2.85;1.70;;;;;;;;;;4980027;28;20054;-83
2021/06/22 07:03:33;;;;;;;3.35;2.20;;;;;;;;;;4980596;28;20054;-83
2021/06/22 07:06:01;;;;;;;5.03;2.35;;;;;;;;;;4978065;28;20407;-82
2021/06/22 07:08:27;;;;;;;5.25;2.00;;;;;;;;;;4978020;28;20109;-83
2021/06/22 07:10:54;;;;;;;3.72;2.22;;;;;;;;;;4979070;28;20051;-83
2021/06/22 07:13:21;;;;;;;4.35;1.90;;;;;;;;;;4980101;28;20059;-86
2021/06/22 07:15:49;;;;;;;7.30;2.78;;;;;;;;;;4963310;28;20118;-82
2021/06/22 07:18:15;;;;;;;4.22;2.30;;;;;;;;;;4979633;28;20059;-83
2021/06/22 07:20:42;;;;;;;4.05;2.47;;;;;;;;;;4980928;28;20062;-84
2021/06/22 07:23:10;;;;;;;5.75;2.38;;;;;;;;;;4980257;28;20047;-83
2021/06/22 07:25:36;;;;;;;5.10;2.33;;;;;;;;;;4980873;28;20043;-84
2021/06/22 07:28:03;;;;;;;5.82;2.35;;;;;;;;;;4978056;28;20058;-82
2021/06/22 07:30:29;;;;;;;4.57;2.20;;;;;;;;;;4979363;28;20051;-82
2021/06/22 07:32:57;;;;;;;4.38;2.65;;;;;;;;;;4979919;28;20054;-81
2021/06/22 07:35:24;;;;;;;5.80;2.90;;;;;;;;;;4980741;28;20047;-82
2021/06/22 07:37:51;;;;;;;4.18;2.65;;;;;;;;;;4980967;28;20385;-83
2021/06/22 07:40:19;;;;;;;8.32;2.70;;;;;;;;;;4996903;28;20046;-83
2021/06/22 07:42:46;;;;;;;4.90;2.40;;;;;;;;;;4978175;28;20113;-84
2021/06/22 07:45:13;;;;;;;7.35;2.63;;;;;;;;;;4978062;28;20051;-83
2021/06/22 07:47:40;;;;;;;5.43;2.30;;;;;;;;;;4978414;28;20065;-82
2021/06/22 07:50:09;;;;;;;4.68;2.42;;;;;;;;;;4978536;28;20051;-82
2021/06/22 07:52:35;;;;;;;4.07;2.70;;;;;;;;;;4980630;28;20054;-82
2021/06/22 07:55:02;;;;;;;4.95;2.15;;;;;;;;;;4981194;28;20042;-83
2021/06/22 07:57:29;;;;;;;4.10;2.10;;;;;;;;;;4981384;28;20078;-85
2021/06/22 07:59:56;;;;;;;5.38;2.38;;;;;;;;;;4980739;28;20042;-83
2021/06/22 08:02:22;;;;;;;8.35;2.40;;;;;;;;;;4982104;28;20427;-82
2021/06/22 08:04:49;;;;;;;6.28;2.50;;;;;;;;;;4981153;28;20419;-82
2021/06/22 08:07:16;;;;;;;5.13;1.85;;;;;;;;;;4981048;28;20483;-84
2021/06/22 08:09:42;;;;;;;16.13;2.97;;;;;;;;;;4986145;28;20046;-83
2021/06/22 08:12:09;;;;;;;5.70;2.28;;;;;;;;;;5002055;28;20057;-82
2021/06/22 08:14:38;;;;;;;3.88;2.33;;;;;;;;;;4999477;28;20420;-84
2021/06/22 08:17:04;;;;;;;5.18;2.20;;;;;;;;;;4981898;28;20085;-85
2021/06/22 08:19:31;;;;;;;4.70;1.92;;;;;;;;;;4982987;28;20051;-82
2021/06/22 08:21:57;;;;;;;4.93;2.38;;;;;;;;;;4982620;28;20404;-84
2021/06/22 08:24:24;;;;;;;5.30;1.95;;;;;;;;;;4982352;28;20054;-83
2021/06/22 08:26:50;;;;;;;5.25;2.50;;;;;;;;;;4981961;28;20061;-83
2021/06/22 08:29:16;;;;;;;8.88;2.40;;;;;;;;;;4983596;28;20047;-82
2021/06/22 08:31:44;;;;;;;4.13;1.85;;;;;;;;;;4985703;28;20057;-81
2021/06/22 08:34:11;;;;;;;4.95;1.85;;;;;;;;;;4986027;28;20047;-85
2021/06/22 08:36:37;;;;;;;18.83;2.75;;;;;;;;;;4990861;28;20054;-83
2021/06/22 08:39:04;;;;;;;4.10;1.80;;;;;;;;;;5005670;28;20411;-82
2021/06/22 08:41:30;;;;;;;3.50;1.88;;;;;;;;;;5004923;28;20042;-87
2021/06/22 08:43:58;;;;;;;4.60;1.70;;;;;;;;;;5005934;28;20050;-84
2021/06/22 08:46:24;;;;;;;3.42;1.98;;;;;;;;;;5005206;28;20050;-81
2021/06/22 08:48:52;;;;;;;6.13;2.28;;;;;;;;;;5000276;28;20065;-85
2021/06/22 08:51:19;;;;;;;3.75;1.67;;;;;;;;;;4993100;28;20046;-83
2021/06/22 08:53:46;;;;;;;3.60;1.63;;;;;;;;;;4989913;28;20047;-82
2021/06/22 08:56:12;;;;;;;4.82;1.60;;;;;;;;;;4992415;28;20046;-81
2021/06/22 08:58:38;;;;;;;7.25;2.00;;;;;;;;;;4993847;28;20051;-85
2021/06/22 09:01:05;;;;;;;3.33;1.48;;;;;;;;;;4991465;28;20123;-85
2021/06/22 09:03:33;;;;;;;6.50;1.73;;;;;;;;;;4996053;28;20042;-83
2021/06/22 09:06:02;;;;;;;3.85;1.50;;;;;;;;;;5000818;28;20058;-83
2021/06/22 09:08:30;;;;;;;2.88;1.80;;;;;;;;;;4990156;28;20058;-81
2021/06/22 09:11:15;;;;;;;4.82;1.60;;;;;;;;;;4990885;28;20047;-84
2021/06/22 09:13:44;;;;;;;5.43;1.67;;;;;;;;;;4991062;28;20049;-81
2021/06/22 09:16:13;;;;;;;3.28;1.73;;;;;;;;;;4997656;28;20101;-84
2021/06/22 09:18:42;;;;;;;4.18;1.50;;;;;;;;;;4986255;28;20046;-84
2021/06/22 09:21:13;;;;;;;2.88;1.70;;;;;;;;;;4992183;28;20054;-82
2021/06/22 09:23:41;;;;;;;3.17;1.42;;;;;;;;;;4997244;28;20051;-84
2021/06/22 09:26:11;;;;;;;4.47;1.70;;;;;;;;;;4996400;28;20069;-85
2021/06/22 09:28:38;;;;;;;5.25;1.70;;;;;;;;;;4995877;28;20062;-84
2021/06/22 09:31:06;;;;;;;4.53;1.65;;;;;;;;;;4989543;28;20055;-83
2021/06/22 09:33:36;;;;;;;4.43;1.35;;;;;;;;;;4997904;28;20069;-82
2021/06/22 09:36:07;;;;;;;3.88;1.58;;;;;;;;;;4996981;28;20047;-86
2021/06/22 09:38:37;;;;;;;2.63;1.38;;;;;;;;;;4998586;28;20149;-83
2021/06/22 09:41:06;;;;;;;3.70;1.50;;;;;;;;;;5007921;28;20042;-84
2021/06/22 09:43:37;;;;;;;4.00;1.50;;;;;;;;;;5004764;28;20118;-84
2021/06/22 09:46:06;;;;;;;2.83;1.38;;;;;;;;;;5006845;28;20061;-85
2021/06/22 09:48:42;;;;;;;6.95;1.75;;;;;;;;;;4998454;28;20057;-86
2021/06/22 09:51:10;;;;;;;4.30;1.75;;;;;;;;;;4993189;28;20054;-86
2021/06/22 09:53:38;;;;;;;18.20;3.22;;;;;;;;;;4997037;28;20053;-84
2021/06/22 09:56:07;;;;;;;9.00;2.17;;;;;;;;;;5004048;28;20074;-84
2021/06/22 09:58:40;;;;;;;7.22;1.98;;;;;;;;;;4998822;28;20062;-84
2021/06/22 10:01:24;;;;;;;4.05;1.60;;;;;;;;;;4996832;28;20047;-83
2021/06/22 10:03:51;;;;;;;2.17;1.40;;;;;;;;;;5000172;28;20061;-83
2021/06/22 10:06:18;;;;;;;2.60;1.15;;;;;;;;;;5000490;28;20046;-84
2021/06/22 10:08:54;;;;;;;3.08;1.30;;;;;;;;;;4994752;28;20056;-85
2021/06/22 10:11:31;;;;;;;3.33;1.63;;;;;;;;;;4997052;28;20651;-82
2021/06/22 10:13:58;;;;;;;3.13;1.40;;;;;;;;;;4991033;28;20046;-81
2021/06/22 10:16:26;;;;;;;5.82;1.42;;;;;;;;;;4999435;28;20446;-82
2021/06/22 10:18:53;;;;;;;4.60;1.50;;;;;;;;;;4994016;28;20101;-85
2021/06/22 10:21:19;;;;;;;5.63;1.40;;;;;;;;;;4994014;28;20042;-83
2021/06/22 10:23:46;;;;;;;6.32;1.80;;;;;;;;;;4996740;28;20051;-82
2021/06/22 10:26:14;;;;;;;3.47;1.40;;;;;;;;;;4996916;28;20042;-84
2021/06/22 10:28:41;;;;;;;5.10;1.40;;;;;;;;;;4990741;28;20056;-83
2021/06/22 10:31:08;;;;;;;3.17;1.30;;;;;;;;;;4995049;28;20045;-82
2021/06/22 10:33:34;;;;;;;6.15;1.45;;;;;;;;;;4998525;28;20053;-85
2021/06/22 10:36:01;;;;;;;2.70;0.90;;;;;;;;;;5000371;28;20120;-86
2021/06/22 10:38:35;;;;;;;3.05;1.27;;;;;;;;;;5004840;28;20050;-85
2021/06/22 10:41:02;;;;;;;3.17;1.60;;;;;;;;;;5005230;28;20410;-83
2021/06/22 10:43:37;;;;;;;3.88;1.63;;;;;;;;;;5001151;28;20047;-84
2021/06/22 10:46:06;;;;;;;2.80;1.23;;;;;;;;;;4994010;28;20071;-83
2021/06/22 10:48:40;;;;;;;5.88;1.48;;;;;;;;;;4990194;28;20057;-83
2021/06/22 10:51:30;;;;;;;2.85;1.10;;;;;;;;;;4992247;28;20039;-85
2021/06/22 10:53:58;;;;;;;2.10;0.85;;;;;;;;;;4996792;28;20042;-81
2021/06/22 10:56:25;;;;;;;4.32;1.30;;;;;;;;;;4997713;28;20054;-86
2021/06/22 10:59:26;;;;;;;2.03;1.20;;;;;;;;;;4996233;28;20046;-84
2021/06/22 11:02:03;;;;;;;4.75;1.25;;;;;;;;;;4996124;28;20042;-84
2021/06/22 11:04:29;;;;;;;3.42;1.00;;;;;;;;;;4998853;28;20053;-80
2021/06/22 11:07:16;;;;;;;2.40;1.20;;;;;;;;;;5002423;28;20051;-82
2021/06/22 11:10:10;;;;;;;2.40;0.95;;;;;;;;;;4993280;28;20050;-83
2021/06/22 11:12:51;;;;;;;3.95;1.10;;;;;;;;;;4992798;28;20142;-82
2021/06/22 11:15:19;;;;;;;5.78;1.50;;;;;;;;;;4991235;28;20137;-83
2021/06/22 11:17:56;;;;;;;3.78;1.23;;;;;;;;;;4990514;28;20054;-83
2021/06/22 11:20:22;;;;;;;3.40;1.33;;;;;;;;;;4996129;28;20051;-84
2021/06/22 11:23:06;;;;;;;8.88;3.08;;;;;;;;;;4971155;28;20058;-80
2021/06/22 11:25:47;;;;;;;8.63;2.97;;;;;;;;;;4995957;28;20061;-81
2021/06/22 11:28:13;;;;;;;4.72;1.70;;;;;;;;;;4996957;28;20046;-83
2021/06/22 11:30:53;;;;;;;2.88;1.40;;;;;;;;;;4989923;28;20050;-84
2021/06/22 11:33:46;;;;;;;5.68;1.85;;;;;;;;;;4982815;28;20070;-82
2021/06/22 11:36:29;;;;;;;3.92;1.42;;;;;;;;;;4987175;28;20047;-82
2021/06/22 11:39:22;;;;;;;3.25;1.15;;;;;;;;;;4991518;28;20077;-83
2021/06/22 11:42:26;;;;;;;3.33;1.30;;;;;;;;;;4995675;28;20043;-85
2021/06/22 11:44:59;;;;;;;10.98;4.13;;;;;;;;;;4989099;28;20052;-85
2021/06/22 11:47:59;;;;;;;4.68;1.95;;;;;;;;;;4991267;28;20050;-82
2021/06/22 11:50:48;;;;;;;5.32;1.80;;;;;;;;;;4985408;28;20542;-82
2021/06/22 11:53:16;;;;;;;4.78;1.52;;;;;;;;;;4988033;28;20047;-84
2021/06/22 11:55:45;;;;;;;3.72;1.50;;;;;;;;;;4992786;28;20054;-85
2021/06/22 11:58:22;;;;;;;4.13;1.60;;;;;;;;;;4984797;28;20057;-81
2021/06/22 12:00:48;;;;;;;4.95;1.50;;;;;;;;;;4990623;28;20054;-84
2021/06/22 12:03:20;;;;;;;4.28;1.40;;;;;;;;;;4984167;28;20038;-84
2021/06/22 12:05:47;;;;;;;5.35;1.52;;;;;;;;;;4991671;28;20506;-86
2021/06/22 12:08:15;;;;;;;5.82;1.77;;;;;;;;;;4994124;28;20050;-82
2021/06/22 12:10:47;;;;;;;8.48;2.85;;;;;;;;;;4994643;28;20125;-83
2021/06/22 12:13:29;;;;;;;6.63;2.35;;;;;;;;;;4983500;28;20046;-85
2021/06/22 12:15:55;;;;;;;5.28;1.90;;;;;;;;;;4991150;28;20615;-84
2021/06/22 12:18:28;;;;;;;5.75;2.30;;;;;;;;;;4989810;28;20042;-85
2021/06/22 12:20:54;;;;;;;7.65;3.20;;;;;;;;;;4993873;28;20051;-82
2021/06/22 12:23:21;;;;;;;6.30;1.65;;;;;;;;;;4986096;28;20084;-83
2021/06/22 12:25:50;;;;;;;5.55;1.73;;;;;;;;;;4993155;28;20054;-84
2021/06/22 12:28:17;;;;;;;4.40;1.70;;;;;;;;;;4980763;28;20051;-83
2021/06/22 12:30:45;;;;;;;4.03;1.73;;;;;;;;;;4990128;28;20050;-84
2021/06/22 12:33:14;;;;;;;1.70;1.10;;;;;;;;;;4996401;28;20046;-84
2021/06/22 12:35:45;;;;;;;1.95;0.93;;;;;;;;;;4990877;28;20066;-81
2021/06/22 12:38:14;;;;;;;3.97;1.20;;;;;;;;;;4983164;28;20047;-87
2021/06/22 12:40:43;;;;;;;3.20;1.30;;;;;;;;;;4990564;28;20053;-82
2021/06/22 12:43:10;;;;;;;3.95;1.23;;;;;;;;;;4980881;28;20055;-82
2021/06/22 12:45:37;;;;;;;3.00;1.10;;;;;;;;;;4993973;28;20043;-82
2021/06/22 12:48:05;;;;;;;3.05;1.35;;;;;;;;;;4994876;28;20046;-86
2021/06/22 12:50:34;;;;;;;5.60;1.35;;;;;;;;;;4985170;28;20110;-85
2021/06/22 12:53:02;;;;;;;2.45;1.20;;;;;;;;;;4985905;28;20052;-82
2021/06/22 12:55:36;;;;;;;2.90;0.90;;;;;;;;;;4986760;28;20076;-83
2021/06/22 12:58:04;;;;;;;3.55;1.13;;;;;;;;;;4986665;28;20129;-82
2021/06/22 13:00:39;;;;;;;3.58;1.17;;;;;;;;;;4996645;28;20043;-84
2021/06/22 13:03:08;;;;;;;3.08;0.98;;;;;;;;;;4989627;28;20189;-84
2021/06/22 13:05:38;;;;;;;3.35;1.30;;;;;;;;;;4990607;28;20049;-85
2021/06/22 13:08:08;;;;;;;4.07;1.10;;;;;;;;;;4988274;28;20038;-83
2021/06/22 13:10:43;;;;;;;2.28;0.90;;;;;;;;;;4990895;28;20105;-85
2021/06/22 13:13:10;;;;;;;3.47;0.82;;;;;;;;;;4986753;28;20447;-82
2021/06/22 13:15:38;;;;;;;8.23;1.60;;;;;;;;;;4998622;28;20050;-82
2021/06/22 13:18:06;;;;;;;3.08;0.93;;;;;;;;;;4993158;28;20047;-85
2021/06/22 13:20:35;;;;;;;11.65;2.22;;;;;;;;;;4990555;28;20126;-86
2021/06/22 13:23:04;;;;;;;2.88;1.02;;;;;;;;;;4997697;28;20049;-82
2021/06/22 13:25:32;;;;;;;1.83;0.90;;;;;;;;;;4990826;28;20042;-85
2021/06/22 13:28:15;;;;;;;1.67;0.85;;;;;;;;;;4995260;28;20077;-83
2021/06/22 13:30:49;;;;;;;11.40;1.83;;;;;;;;;;4987367;28;20098;-82
2021/06/22 13:33:19;;;;;;;4.95;1.15;;;;;;;;;;4988003;28;20046;-83
2021/06/22 13:35:53;;;;;;;6.93;1.10;;;;;;;;;;4986959;28;20046;-83
2021/06/22 13:38:21;;;;;;;2.17;1.10;;;;;;;;;;4983100;28;20126;-82
2021/06/22 13:40:51;;;;;;;2.92;1.17;;;;;;;;;;4991959;28;20455;-83
2021/06/22 13:43:19;;;;;;;3.80;1.50;;;;;;;;;;4993345;28;20050;-84
2021/06/22 13:45:49;;;;;;;3.53;1.50;;;;;;;;;;4984659;28;20126;-84
2021/06/22 13:48:20;;;;;;;3.83;1.58;;;;;;;;;;4990695;28;20058;-85
2021/06/22 13:50:46;;;;;;;3.63;1.60;;;;;;;;;;4994189;28;20491;-83
2021/06/22 13:53:20;;;;;;;2.90;1.40;;;;;;;;;;4991506;28;20043;-85
2021/06/22 13:55:46;;;;;;;5.55;1.70;;;;;;;;;;4995844;28;20058;-82
2021/06/22 13:58:16;;;;;;;5.50;1.55;;;;;;;;;;4980876;28;20492;-82
2021/06/22 14:00:43;;;;;;;41.33;6.38;;;;;;;;;;4978754;28;20053;-82
2021/06/22 14:03:12;;;;;;;18.00;4.85;;;;;;;;;;4977971;28;20506;-85
2021/06/22 14:05:40;;;;;;;10.52;2.33;;;;;;;;;;4977853;28;20051;-88
2021/06/22 14:08:08;;;;;;;14.68;3.67;;;;;;;;;;4961562;28;20053;-84
2021/06/22 14:10:35;;;;;;;7.55;3.88;;;;;;;;;;4977703;28;20242;-86
2021/06/22 14:13:04;;;;;;;7.93;2.78;;;;;;;;;;4959704;28;20062;-86
2021/06/22 14:15:32;;;;;;;5.03;2.00;;;;;;;;;;4980344;28;20157;-85
2021/06/22 14:17:59;;;;;;;3.22;2.03;;;;;;;;;;4990715;28;20057;-84
2021/06/22 14:20:26;;;;;;;4.65;3.15;;;;;;;;;;4997097;28;20053;-87
2021/06/22 14:22:53;;;;;;;4.43;2.83;;;;;;;;;;4997713;28;20153;-84
2021/06/22 14:25:21;;;;;;;4.25;2.90;;;;;;;;;;4986237;28;20050;-85
2021/06/22 14:27:47;;;;;;;3.42;2.88;;;;;;;;;;4996476;28;20540;-84
2021/06/22 14:30:16;;;;;;;3.80;2.97;;;;;;;;;;4974201;28;20043;-85
2021/06/22 14:32:45;;;;;;;4.40;3.20;;;;;;;;;;4989937;28;20043;-84
2021/06/22 14:35:13;;;;;;;7.00;4.60;;;;;;;;;;4991179;28;20125;-85
2021/06/22 14:37:40;;;;;;;8.75;4.80;;;;;;;;;;4987540;28;20053;-85
2021/06/22 14:40:12;;;;;;;6.82;4.88;;;;;;;;;;4989846;28;20066;-85
2021/06/22 14:42:40;;;;;;;8.48;6.20;;;;;;;;;;4984477;28;20507;-86
2021/06/22 14:45:08;;;;;;;7.93;5.63;;;;;;;;;;4980681;28;20039;-85
2021/06/22 14:47:35;;;;;;;7.35;5.47;;;;;;;;;;4966994;28;20054;-85
2021/06/22 14:50:06;;;;;;;7.22;6.30;;;;;;;;;;4976939;28;20078;-85
2021/06/22 14:52:32;;;;;;;6.20;5.47;;;;;;;;;;4976978;28;20122;-86